Waukenabo, Minnesota
Current Conditions -  °F | °C
As of 12:13 PM on Friday 19 Dec 2014 (Local Time) from KAIT Reporting Station
Haze Haze  
Wind Chill: 18°   Ceiling: 1100
Heat Index: 27°   Visibility: 5mi
Dew Point: 19°   Wind: 8mph
Humidity: 74%   Direction: 160°SSE
Pressure: 30.15"   Gusts: NA
Location:  46.7281°N, 93.6101°W
Report Text: KAIT 191813Z AUTO 16007KT 5SM HZ OVC011 M03/M07 A3015 RMK AO2
Loading
Personal Weather Stations






























Interactive Weather Map New forecast layout! Learn more

10-Day Weather Forecast

Advertisements
Track Severe Weather on mobile